sensor_id;sensor_type;location;lat;lon;timestamp;P1;durP1;ratioP1;P2;durP2;ratioP2
3979;SDS011;2004;52.452;13.120;2024-02-28T00:03:40;249.07;;;32.67;;
3979;SDS011;2004;52.452;13.120;2024-02-28T00:11:31;253.13;;;31.57;;
3979;SDS011;2004;52.452;13.120;2024-02-28T00:19:22;251.53;;;31.47;;
3979;SDS011;2004;52.452;13.120;2024-02-28T00:27:15;241.93;;;29.20;;
3979;SDS011;2004;52.452;13.120;2024-02-28T00:35:05;234.23;;;27.83;;
3979;SDS011;2004;52.452;13.120;2024-02-28T00:42:57;236.57;;;28.80;;
3979;SDS011;2004;52.452;13.120;2024-02-28T00:50:48;234.90;;;27.03;;
3979;SDS011;2004;52.452;13.120;2024-02-28T00:58:39;238.37;;;28.63;;
3979;SDS011;2004;52.452;13.120;2024-02-28T01:06:29;230.80;;;26.20;;
3979;SDS011;2004;52.452;13.120;2024-02-28T01:14:20;232.13;;;25.80;;
3979;SDS011;2004;52.452;13.120;2024-02-28T01:22:11;232.07;;;25.50;;
3979;SDS011;2004;52.452;13.120;2024-02-28T01:30:01;235.63;;;28.03;;
3979;SDS011;2004;52.452;13.120;2024-02-28T01:37:52;223.80;;;26.00;;
3979;SDS011;2004;52.452;13.120;2024-02-28T01:45:43;229.10;;;25.50;;
3979;SDS011;2004;52.452;13.120;2024-02-28T01:53:34;230.00;;;26.37;;
3979;SDS011;2004;52.452;13.120;2024-02-28T02:01:25;228.83;;;25.03;;
3979;SDS011;2004;52.452;13.120;2024-02-28T02:09:16;227.27;;;24.60;;
3979;SDS011;2004;52.452;13.120;2024-02-28T02:17:07;232.07;;;26.67;;
3979;SDS011;2004;52.452;13.120;2024-02-28T02:24:58;231.50;;;26.30;;
3979;SDS011;2004;52.452;13.120;2024-02-28T02:32:48;235.03;;;27.40;;
3979;SDS011;2004;52.452;13.120;2024-02-28T02:40:39;231.13;;;26.10;;
3979;SDS011;2004;52.452;13.120;2024-02-28T02:48:29;232.80;;;26.60;;
3979;SDS011;2004;52.452;13.120;2024-02-28T02:56:20;234.13;;;27.67;;
3979;SDS011;2004;52.452;13.120;2024-02-28T03:04:11;231.07;;;27.70;;
3979;SDS011;2004;52.452;13.120;2024-02-28T03:12:02;231.80;;;28.63;;
3979;SDS011;2004;52.452;13.120;2024-02-28T03:19:52;228.17;;;26.57;;
3979;SDS011;2004;52.452;13.120;2024-02-28T03:27:43;228.77;;;25.67;;
3979;SDS011;2004;52.452;13.120;2024-02-28T03:35:34;226.47;;;24.90;;
3979;SDS011;2004;52.452;13.120;2024-02-28T03:43:24;217.33;;;22.20;;
3979;SDS011;2004;52.452;13.120;2024-02-28T03:51:15;221.27;;;24.57;;
3979;SDS011;2004;52.452;13.120;2024-02-28T03:59:05;218.47;;;23.27;;
3979;SDS011;2004;52.452;13.120;2024-02-28T04:06:56;217.37;;;22.30;;
3979;SDS011;2004;52.452;13.120;2024-02-28T04:14:47;215.93;;;22.60;;
3979;SDS011;2004;52.452;13.120;2024-02-28T04:22:37;221.17;;;24.50;;
3979;SDS011;2004;52.452;13.120;2024-02-28T04:30:28;222.70;;;23.97;;
3979;SDS011;2004;52.452;13.120;2024-02-28T04:38:19;219.87;;;22.80;;
3979;SDS011;2004;52.452;13.120;2024-02-28T04:46:10;217.73;;;22.80;;
3979;SDS011;2004;52.452;13.120;2024-02-28T04:54:00;223.03;;;23.77;;
3979;SDS011;2004;52.452;13.120;2024-02-28T05:01:51;221.33;;;22.77;;
3979;SDS011;2004;52.452;13.120;2024-02-28T05:09:42;219.43;;;23.50;;
3979;SDS011;2004;52.452;13.120;2024-02-28T05:17:33;216.03;;;22.30;;
3979;SDS011;2004;52.452;13.120;2024-02-28T05:25:23;212.23;;;20.07;;
3979;SDS011;2004;52.452;13.120;2024-02-28T05:33:14;206.83;;;18.57;;
3979;SDS011;2004;52.452;13.120;2024-02-28T05:41:05;209.57;;;16.50;;
3979;SDS011;2004;52.452;13.120;2024-02-28T05:48:55;215.53;;;19.03;;
3979;SDS011;2004;52.452;13.120;2024-02-28T05:56:46;219.23;;;22.60;;
3979;SDS011;2004;52.452;13.120;2024-02-28T06:04:37;217.07;;;21.50;;
3979;SDS011;2004;52.452;13.120;2024-02-28T06:12:27;222.03;;;22.83;;
3979;SDS011;2004;52.452;13.120;2024-02-28T06:20:18;216.43;;;21.90;;
3979;SDS011;2004;52.452;13.120;2024-02-28T06:28:08;218.33;;;20.60;;
3979;SDS011;2004;52.452;13.120;2024-02-28T06:36:00;215.73;;;21.33;;
3979;SDS011;2004;52.452;13.120;2024-02-28T06:43:50;210.17;;;20.07;;
3979;SDS011;2004;52.452;13.120;2024-02-28T06:51:42;216.47;;;21.47;;
3979;SDS011;2004;52.452;13.120;2024-02-28T06:59:34;217.97;;;21.70;;
3979;SDS011;2004;52.452;13.120;2024-02-28T07:07:24;218.00;;;21.80;;
3979;SDS011;2004;52.452;13.120;2024-02-28T07:15:15;217.43;;;22.27;;
3979;SDS011;2004;52.452;13.120;2024-02-28T07:23:09;216.47;;;20.50;;
3979;SDS011;2004;52.452;13.120;2024-02-28T07:30:59;216.87;;;22.20;;
3979;SDS011;2004;52.452;13.120;2024-02-28T07:38:50;212.33;;;18.73;;
3979;SDS011;2004;52.452;13.120;2024-02-28T07:46:42;217.63;;;20.57;;
3979;SDS011;2004;52.452;13.120;2024-02-28T07:54:33;212.33;;;19.20;;
3979;SDS011;2004;52.452;13.120;2024-02-28T08:02:23;220.17;;;23.03;;
3979;SDS011;2004;52.452;13.120;2024-02-28T08:10:14;224.20;;;23.67;;
3979;SDS011;2004;52.452;13.120;2024-02-28T08:18:05;221.00;;;23.63;;
3979;SDS011;2004;52.452;13.120;2024-02-28T08:25:57;226.17;;;23.80;;
3979;SDS011;2004;52.452;13.120;2024-02-28T08:33:48;223.80;;;24.50;;
3979;SDS011;2004;52.452;13.120;2024-02-28T08:41:38;224.63;;;24.40;;
3979;SDS011;2004;52.452;13.120;2024-02-28T08:49:29;226.30;;;24.70;;
3979;SDS011;2004;52.452;13.120;2024-02-28T08:57:20;230.57;;;27.37;;
3979;SDS011;2004;52.452;13.120;2024-02-28T09:05:13;230.80;;;28.70;;
3979;SDS011;2004;52.452;13.120;2024-02-28T09:13:04;228.60;;;28.13;;
3979;SDS011;2004;52.452;13.120;2024-02-28T09:20:56;225.93;;;27.23;;
3979;SDS011;2004;52.452;13.120;2024-02-28T09:28:47;229.67;;;25.87;;
3979;SDS011;2004;52.452;13.120;2024-02-28T09:36:41;225.27;;;27.17;;
3979;SDS011;2004;52.452;13.120;2024-02-28T09:44:32;222.90;;;24.27;;
3979;SDS011;2004;52.452;13.120;2024-02-28T09:52:24;226.47;;;26.80;;
3979;SDS011;2004;52.452;13.120;2024-02-28T10:00:19;225.13;;;26.43;;
3979;SDS011;2004;52.452;13.120;2024-02-28T10:08:10;224.13;;;26.40;;
3979;SDS011;2004;52.452;13.120;2024-02-28T10:16:06;227.27;;;25.50;;
3979;SDS011;2004;52.452;13.120;2024-02-28T10:23:57;221.00;;;24.90;;
3979;SDS011;2004;52.452;13.120;2024-02-28T10:31:48;216.90;;;22.40;;
3979;SDS011;2004;52.452;13.120;2024-02-28T10:39:39;219.70;;;23.83;;
3979;SDS011;2004;52.452;13.120;2024-02-28T10:47:33;227.00;;;24.77;;
3979;SDS011;2004;52.452;13.120;2024-02-28T10:55:23;222.47;;;24.93;;
3979;SDS011;2004;52.452;13.120;2024-02-28T11:03:15;218.67;;;22.17;;
3979;SDS011;2004;52.452;13.120;2024-02-28T11:11:07;213.87;;;21.53;;
3979;SDS011;2004;52.452;13.120;2024-02-28T11:19:01;213.10;;;20.30;;
3979;SDS011;2004;52.452;13.120;2024-02-28T11:26:54;210.70;;;20.00;;
3979;SDS011;2004;52.452;13.120;2024-02-28T11:34:45;210.70;;;20.10;;
3979;SDS011;2004;52.452;13.120;2024-02-28T11:42:37;212.17;;;21.17;;
3979;SDS011;2004;52.452;13.120;2024-02-28T11:50:29;209.73;;;19.50;;
3979;SDS011;2004;52.452;13.120;2024-02-28T11:58:20;220.83;;;23.27;;
3979;SDS011;2004;52.452;13.120;2024-02-28T12:06:15;209.57;;;19.50;;
3979;SDS011;2004;52.452;13.120;2024-02-28T12:14:09;225.03;;;20.10;;
3979;SDS011;2004;52.452;13.120;2024-02-28T12:22:06;210.10;;;18.80;;
3979;SDS011;2004;52.452;13.120;2024-02-28T12:30:08;205.10;;;18.30;;
3979;SDS011;2004;52.452;13.120;2024-02-28T12:38:05;204.87;;;18.07;;
3979;SDS011;2004;52.452;13.120;2024-02-28T12:45:59;202.07;;;16.57;;
3979;SDS011;2004;52.452;13.120;2024-02-28T12:53:52;203.13;;;15.97;;
3979;SDS011;2004;52.452;13.120;2024-02-28T13:01:47;201.67;;;15.50;;
3979;SDS011;2004;52.452;13.120;2024-02-28T13:09:38;200.10;;;15.97;;
3979;SDS011;2004;52.452;13.120;2024-02-28T13:17:30;200.63;;;16.33;;
3979;SDS011;2004;52.452;13.120;2024-02-28T13:25:28;202.87;;;16.80;;
3979;SDS011;2004;52.452;13.120;2024-02-28T13:33:32;201.83;;;16.63;;
3979;SDS011;2004;52.452;13.120;2024-02-28T13:41:39;200.57;;;16.10;;
3979;SDS011;2004;52.452;13.120;2024-02-28T13:49:30;198.83;;;16.00;;
3979;SDS011;2004;52.452;13.120;2024-02-28T13:57:23;199.60;;;15.73;;
3979;SDS011;2004;52.452;13.120;2024-02-28T14:05:17;202.07;;;15.97;;
3979;SDS011;2004;52.452;13.120;2024-02-28T14:13:08;202.90;;;16.47;;
3979;SDS011;2004;52.452;13.120;2024-02-28T14:21:07;197.97;;;15.90;;
3979;SDS011;2004;52.452;13.120;2024-02-28T14:29:06;196.80;;;14.20;;
3979;SDS011;2004;52.452;13.120;2024-02-28T14:36:58;199.90;;;16.10;;
3979;SDS011;2004;52.452;13.120;2024-02-28T14:44:48;202.23;;;16.97;;
3979;SDS011;2004;52.452;13.120;2024-02-28T14:52:41;197.67;;;15.53;;
3979;SDS011;2004;52.452;13.120;2024-02-28T15:00:36;199.57;;;16.43;;
3979;SDS011;2004;52.452;13.120;2024-02-28T15:08:27;203.43;;;17.60;;
3979;SDS011;2004;52.452;13.120;2024-02-28T15:16:18;200.17;;;18.00;;
3979;SDS011;2004;52.452;13.120;2024-02-28T15:24:09;202.90;;;19.20;;
3979;SDS011;2004;52.452;13.120;2024-02-28T15:32:02;200.33;;;17.23;;
3979;SDS011;2004;52.452;13.120;2024-02-28T15:39:53;198.87;;;15.57;;
3979;SDS011;2004;52.452;13.120;2024-02-28T15:47:45;198.97;;;15.87;;
3979;SDS011;2004;52.452;13.120;2024-02-28T15:55:36;199.60;;;16.33;;
3979;SDS011;2004;52.452;13.120;2024-02-28T16:03:28;198.10;;;16.80;;
3979;SDS011;2004;52.452;13.120;2024-02-28T16:11:19;202.80;;;17.20;;
3979;SDS011;2004;52.452;13.120;2024-02-28T16:19:10;201.80;;;16.83;;
3979;SDS011;2004;52.452;13.120;2024-02-28T16:27:04;201.90;;;16.10;;
3979;SDS011;2004;52.452;13.120;2024-02-28T16:34:58;200.07;;;16.20;;
3979;SDS011;2004;52.452;13.120;2024-02-28T16:42:49;199.97;;;16.57;;
3979;SDS011;2004;52.452;13.120;2024-02-28T16:50:41;199.97;;;17.67;;
3979;SDS011;2004;52.452;13.120;2024-02-28T16:58:33;208.87;;;18.37;;
3979;SDS011;2004;52.452;13.120;2024-02-28T17:06:28;207.43;;;20.30;;
3979;SDS011;2004;52.452;13.120;2024-02-28T17:14:28;207.73;;;20.47;;
3979;SDS011;2004;52.452;13.120;2024-02-28T17:22:19;209.67;;;21.27;;
3979;SDS011;2004;52.452;13.120;2024-02-28T17:30:15;208.90;;;19.30;;
3979;SDS011;2004;52.452;13.120;2024-02-28T17:38:12;209.87;;;21.13;;
3979;SDS011;2004;52.452;13.120;2024-02-28T17:46:03;211.23;;;20.60;;
3979;SDS011;2004;52.452;13.120;2024-02-28T17:54:02;209.10;;;21.30;;
3979;SDS011;2004;52.452;13.120;2024-02-28T18:01:55;214.07;;;22.17;;
3979;SDS011;2004;52.452;13.120;2024-02-28T18:10:15;214.10;;;22.87;;
3979;SDS011;2004;52.452;13.120;2024-02-28T18:18:07;216.17;;;22.40;;
3979;SDS011;2004;52.452;13.120;2024-02-28T18:25:58;210.03;;;20.43;;
3979;SDS011;2004;52.452;13.120;2024-02-28T18:33:52;216.63;;;23.47;;
3979;SDS011;2004;52.452;13.120;2024-02-28T18:41:43;213.87;;;22.43;;
3979;SDS011;2004;52.452;13.120;2024-02-28T18:49:35;213.97;;;22.60;;
3979;SDS011;2004;52.452;13.120;2024-02-28T18:57:27;222.40;;;24.67;;
3979;SDS011;2004;52.452;13.120;2024-02-28T19:05:19;221.17;;;25.10;;
3979;SDS011;2004;52.452;13.120;2024-02-28T19:13:11;220.73;;;26.40;;
3979;SDS011;2004;52.452;13.120;2024-02-28T19:21:02;222.63;;;24.90;;
3979;SDS011;2004;52.452;13.120;2024-02-28T19:28:58;221.80;;;25.60;;
3979;SDS011;2004;52.452;13.120;2024-02-28T19:36:49;221.17;;;24.43;;
3979;SDS011;2004;52.452;13.120;2024-02-28T19:44:49;221.80;;;24.33;;
3979;SDS011;2004;52.452;13.120;2024-02-28T19:52:42;216.77;;;22.97;;
3979;SDS011;2004;52.452;13.120;2024-02-28T20:00:34;223.47;;;26.33;;
3979;SDS011;2004;52.452;13.120;2024-02-28T20:08:25;228.20;;;27.23;;
3979;SDS011;2004;52.452;13.120;2024-02-28T20:16:16;238.33;;;30.57;;
3979;SDS011;2004;52.452;13.120;2024-02-28T20:24:07;233.03;;;31.70;;
3979;SDS011;2004;52.452;13.120;2024-02-28T20:32:01;227.87;;;29.60;;
3979;SDS011;2004;52.452;13.120;2024-02-28T20:39:52;231.43;;;30.80;;
3979;SDS011;2004;52.452;13.120;2024-02-28T20:47:42;231.97;;;28.47;;
3979;SDS011;2004;52.452;13.120;2024-02-28T20:55:33;226.17;;;26.70;;
3979;SDS011;2004;52.452;13.120;2024-02-28T21:03:24;232.97;;;29.60;;
3979;SDS011;2004;52.452;13.120;2024-02-28T21:11:15;231.30;;;29.30;;
3979;SDS011;2004;52.452;13.120;2024-02-28T21:19:07;224.30;;;27.43;;
3979;SDS011;2004;52.452;13.120;2024-02-28T21:26:58;225.37;;;27.80;;
3979;SDS011;2004;52.452;13.120;2024-02-28T21:34:49;223.23;;;25.43;;
3979;SDS011;2004;52.452;13.120;2024-02-28T21:42:40;231.17;;;27.30;;
3979;SDS011;2004;52.452;13.120;2024-02-28T21:50:36;229.07;;;28.97;;
3979;SDS011;2004;52.452;13.120;2024-02-28T21:58:29;224.77;;;27.23;;
3979;SDS011;2004;52.452;13.120;2024-02-28T22:06:25;221.47;;;24.77;;
3979;SDS011;2004;52.452;13.120;2024-02-28T22:14:16;218.77;;;24.50;;
3979;SDS011;2004;52.452;13.120;2024-02-28T22:22:07;229.80;;;29.20;;
3979;SDS011;2004;52.452;13.120;2024-02-28T22:29:57;224.03;;;26.50;;
3979;SDS011;2004;52.452;13.120;2024-02-28T22:37:48;226.27;;;25.87;;
3979;SDS011;2004;52.452;13.120;2024-02-28T22:45:39;226.33;;;27.00;;
3979;SDS011;2004;52.452;13.120;2024-02-28T22:53:32;227.73;;;25.83;;
3979;SDS011;2004;52.452;13.120;2024-02-28T23:01:27;226.87;;;27.20;;
3979;SDS011;2004;52.452;13.120;2024-02-28T23:09:23;229.80;;;29.00;;
3979;SDS011;2004;52.452;13.120;2024-02-28T23:17:14;228.63;;;27.87;;
3979;SDS011;2004;52.452;13.120;2024-02-28T23:25:09;226.73;;;29.47;;
3979;SDS011;2004;52.452;13.120;2024-02-28T23:33:00;232.40;;;28.10;;
3979;SDS011;2004;52.452;13.120;2024-02-28T23:40:55;235.63;;;29.30;;
3979;SDS011;2004;52.452;13.120;2024-02-28T23:48:45;225.97;;;27.07;;
3979;SDS011;2004;52.452;13.120;2024-02-28T23:56:36;231.17;;;27.00;;
